createdAt,value
2018-04-04T00:01:41.776Z,69.49
2018-04-04T00:04:10.171Z,69.85
2018-04-04T00:06:39.382Z,70.33
2018-04-04T00:09:07.766Z,71.29
2018-04-04T00:11:36.177Z,72.48
2018-04-04T00:14:04.591Z,73.54
2018-04-04T00:16:33.987Z,73.60
2018-04-04T00:19:02.356Z,74.52
2018-04-04T00:21:30.778Z,75.04
2018-04-04T00:23:59.931Z,75.21
2018-04-04T00:26:28.340Z,75.80
2018-04-04T00:28:56.706Z,76.37
2018-04-04T00:31:25.071Z,77.53
2018-04-04T00:33:53.488Z,78.07
2018-04-04T00:36:22.624Z,79.14
2018-04-04T00:38:51.022Z,79.16
2018-04-04T00:41:19.445Z,79.16
2018-04-04T00:43:48.666Z,79.28
2018-04-04T00:46:17.058Z,79.78
2018-04-04T00:48:45.434Z,80.44
2018-04-04T00:51:13.813Z,80.75
2018-04-04T00:53:42.191Z,81.05
2018-04-04T00:56:10.701Z,81.60
2018-04-04T00:58:40.037Z,82.48
2018-04-04T01:01:08.416Z,83.09
2018-04-04T01:03:37.552Z,83.21
2018-04-04T01:06:05.940Z,83.62
2018-04-04T01:08:34.319Z,84.07
2018-04-04T01:11:02.684Z,84.88
2018-04-04T01:13:31.841Z,85.46
2018-04-04T01:16:00.232Z,85.17
2018-04-04T01:18:28.643Z,85.79
2018-04-04T01:20:57.856Z,86.18
2018-04-04T01:23:26.277Z,86.46
2018-04-04T01:25:54.808Z,86.73
2018-04-04T01:28:23.949Z,86.57
2018-04-04T01:30:52.322Z,87.41
2018-04-04T01:33:20.697Z,87.12
2018-04-04T01:35:49.090Z,87.21
2018-04-04T01:38:17.546Z,87.60
2018-04-04T01:40:46.075Z,87.79
2018-04-04T01:43:14.472Z,87.76
2018-04-04T01:45:42.870Z,88.20
2018-04-04T01:48:12.020Z,86.98
2018-04-04T01:50:41.037Z,87.21
2018-04-04T01:53:09.442Z,87.54
2018-04-04T01:55:38.650Z,87.02
2018-04-04T01:58:07.056Z,87.30
2018-04-04T02:00:35.418Z,88.02
2018-04-04T02:03:04.554Z,87.89
2018-04-04T02:05:32.906Z,88.09
2018-04-04T02:08:01.391Z,88.48
2018-04-04T02:10:30.581Z,88.23
2018-04-04T02:12:59.737Z,88.82
2018-04-04T02:15:28.109Z,88.80
2018-04-04T02:17:56.470Z,88.48
2018-04-04T02:20:24.844Z,88.37
2018-04-04T02:22:53.214Z,89.07
2018-04-04T02:25:21.611Z,89.08
2018-04-04T02:27:49.972Z,89.57
2018-04-04T02:30:19.134Z,89.28
2018-04-04T02:32:47.479Z,88.96
2018-04-04T02:35:15.831Z,89.16
2018-04-04T02:37:44.206Z,89.36
2018-04-04T02:40:13.376Z,89.89
2018-04-04T02:42:41.767Z,89.83
2018-04-04T02:45:10.225Z,89.91
2018-04-04T02:47:38.695Z,89.96
2018-04-04T02:50:07.050Z,89.79
2018-04-04T02:52:35.450Z,89.89
2018-04-04T02:55:03.919Z,89.93
2018-04-04T02:57:32.307Z,90.17
2018-04-04T03:00:00.675Z,89.64
2018-04-04T03:02:29.079Z,89.18
2018-04-04T03:04:57.553Z,89.44
2018-04-04T03:07:26.231Z,89.29
2018-04-04T03:09:55.555Z,89.41
2018-04-04T03:12:23.958Z,89.14
2018-04-04T03:14:52.355Z,88.35
2018-04-04T03:17:20.764Z,88.48
2018-04-04T03:19:49.149Z,88.68
2018-04-04T03:22:17.535Z,89.17
2018-04-04T03:24:45.927Z,89.24
2018-04-04T03:27:14.464Z,89.30
2018-04-04T03:29:42.835Z,88.75
2018-04-04T03:32:11.251Z,88.60
2018-04-04T03:34:40.375Z,89.00
2018-04-04T03:37:08.768Z,89.19
2018-04-04T03:39:37.157Z,89.58
2018-04-04T03:42:05.558Z,89.51
2018-04-04T03:44:33.943Z,89.42
2018-04-04T03:47:02.357Z,89.30
2018-04-04T03:49:31.499Z,89.67
2018-04-04T03:51:59.886Z,90.02
2018-04-04T03:54:28.243Z,90.03
2018-04-04T03:56:56.652Z,89.90
2018-04-04T03:59:25.035Z,90.14
2018-04-04T04:01:53.464Z,88.89
2018-04-04T04:04:22.701Z,88.79
2018-04-04T04:06:51.098Z,89.16
2018-04-04T04:09:19.542Z,88.96
2018-04-04T04:11:47.879Z,88.36
2018-04-04T04:14:16.244Z,86.71
2018-04-04T04:16:44.595Z,84.34
2018-04-04T04:19:12.989Z,82.63
2018-04-04T04:21:41.440Z,81.32
2018-04-04T04:24:10.873Z,80.07
2018-04-04T04:26:39.245Z,80.06
2018-04-04T04:29:07.615Z,79.39
2018-04-04T04:31:36.082Z,79.47
2018-04-04T04:34:05.245Z,79.81
2018-04-04T04:36:33.611Z,78.71
2018-04-04T04:39:02.174Z,79.75
2018-04-04T04:41:30.537Z,77.80
2018-04-04T04:43:58.935Z,77.96
2018-04-04T04:46:27.335Z,78.86
2018-04-04T04:48:55.800Z,78.11
2018-04-04T04:51:24.208Z,77.65
2018-04-04T04:53:52.594Z,78.13
2018-04-04T04:56:21.047Z,77.46
2018-04-04T04:58:49.434Z,77.20
2018-04-04T05:01:17.834Z,76.85
2018-04-04T05:03:46.246Z,77.77
2018-04-04T05:06:15.491Z,77.04
2018-04-04T05:08:43.906Z,76.56
2018-04-04T05:11:12.378Z,76.67
2018-04-04T05:13:40.773Z,76.19
2018-04-04T05:16:09.220Z,76.02
2018-04-04T05:18:37.600Z,75.91
2018-04-04T05:21:06.086Z,76.07
2018-04-04T05:23:34.496Z,75.19
2018-04-04T05:26:02.871Z,75.27
2018-04-04T05:28:31.271Z,75.37
2018-04-04T05:30:59.671Z,75.21
2018-04-04T05:33:28.860Z,75.43
2018-04-04T05:35:58.014Z,75.41
2018-04-04T05:38:26.392Z,75.39
2018-04-04T05:40:54.776Z,75.53
2018-04-04T05:43:23.187Z,75.59
2018-04-04T05:45:51.883Z,76.33
2018-04-04T05:48:20.210Z,75.86
2018-04-04T05:50:48.602Z,75.11
2018-04-04T05:53:16.987Z,75.54
2018-04-04T05:55:45.431Z,75.47
2018-04-04T05:58:15.647Z,75.42
2018-04-04T06:00:45.046Z,75.31
2018-04-04T06:03:14.223Z,74.51
2018-04-04T06:05:42.624Z,74.75
2018-04-04T06:08:11.849Z,75.42
2018-04-04T06:10:40.186Z,75.22
2018-04-04T06:13:08.573Z,75.18
2018-04-04T06:15:36.957Z,75.20
2018-04-04T06:18:06.087Z,74.97
2018-04-04T06:20:34.476Z,76.25
2018-04-04T06:23:02.928Z,76.47
2018-04-04T06:25:32.063Z,78.33
2018-04-04T06:28:00.572Z,78.92
2018-04-04T06:30:30.012Z,79.21
2018-04-04T06:32:58.904Z,81.66
2018-04-04T06:35:27.326Z,81.57
2018-04-04T06:37:55.834Z,82.92
2018-04-04T06:40:24.275Z,83.55
2018-04-04T06:42:52.798Z,84.19
2018-04-04T06:45:21.962Z,83.39
2018-04-04T06:47:50.416Z,84.40
2018-04-04T06:50:18.837Z,84.89
2018-04-04T06:52:47.259Z,84.34
2018-04-04T06:55:15.656Z,84.84
2018-04-04T06:57:45.002Z,85.49
2018-04-04T07:00:13.477Z,86.29
2018-04-04T07:02:41.997Z,85.04
2018-04-04T07:05:10.442Z,86.55
2018-04-04T07:07:38.984Z,86.69
2018-04-04T07:10:07.292Z,87.26
2018-04-04T07:12:35.804Z,86.98
2018-04-04T07:15:04.251Z,86.65
2018-04-04T07:17:32.643Z,86.72
2018-04-04T07:20:01.078Z,87.20
2018-04-04T07:22:29.516Z,87.30
2018-04-04T07:24:58.077Z,87.61
2018-04-04T07:27:26.460Z,87.06
2018-04-04T07:29:54.848Z,87.39
2018-04-04T07:32:23.240Z,87.21
2018-04-04T07:34:51.692Z,87.30
2018-04-04T07:37:20.689Z,87.72
2018-04-04T07:39:49.088Z,87.07
2018-04-04T07:42:17.829Z,87.40
2018-04-04T07:44:46.219Z,87.43
2018-04-04T07:47:14.611Z,86.73
2018-04-04T07:49:43.053Z,86.49
2018-04-04T07:52:11.464Z,86.34
2018-04-04T07:54:39.856Z,85.77
2018-04-04T07:57:08.252Z,86.08
2018-04-04T07:59:36.678Z,85.78
2018-04-04T08:02:05.862Z,86.21
2018-04-04T08:04:34.286Z,85.10
2018-04-04T08:07:02.690Z,85.50
2018-04-04T08:09:31.108Z,84.89
2018-04-04T08:11:59.560Z,85.71
2018-04-04T08:14:27.949Z,86.38
2018-04-04T08:16:56.344Z,86.37
2018-04-04T08:19:24.725Z,85.93
2018-04-04T08:21:53.149Z,85.89
2018-04-04T08:24:21.545Z,86.13
2018-04-04T08:26:50.029Z,85.14
2018-04-04T08:29:18.481Z,85.11
2018-04-04T08:31:47.558Z,84.94
2018-04-04T08:34:16.781Z,84.51
2018-04-04T08:36:45.140Z,84.32
2018-04-04T08:39:14.472Z,85.38
2018-04-04T08:41:42.882Z,84.78
2018-04-04T08:44:11.294Z,84.53
2018-04-04T08:46:39.840Z,84.33
2018-04-04T08:49:08.262Z,84.62
2018-04-04T08:51:36.702Z,82.12
2018-04-04T08:54:05.241Z,82.54
2018-04-04T08:56:34.493Z,83.16
2018-04-04T08:59:02.976Z,82.74
2018-04-04T09:01:31.530Z,81.67
2018-04-04T09:03:59.955Z,81.47
2018-04-04T09:06:28.375Z,80.28
2018-04-04T09:08:56.876Z,80.32
2018-04-04T09:11:25.389Z,79.89
2018-04-04T09:13:53.784Z,81.42
2018-04-04T09:16:22.214Z,80.29
2018-04-04T09:18:50.631Z,79.64
2018-04-04T09:21:19.053Z,80.69
2018-04-04T09:23:48.211Z,80.18
2018-04-04T09:26:16.637Z,80.33
2018-04-04T09:28:46.045Z,80.72
2018-04-04T09:31:15.260Z,79.76
2018-04-04T09:33:43.687Z,79.69
2018-04-04T09:36:12.095Z,79.04
2018-04-04T09:38:41.250Z,80.43
2018-04-04T09:41:09.632Z,76.83
2018-04-04T09:43:38.055Z,77.05
2018-04-04T09:46:06.431Z,76.45
2018-04-04T09:48:34.888Z,76.04
2018-04-04T09:51:03.313Z,75.18
2018-04-04T09:53:32.619Z,76.06
2018-04-04T09:56:01.017Z,75.17
2018-04-04T09:58:29.450Z,71.94
2018-04-04T10:00:57.816Z,73.05
2018-04-04T10:03:26.258Z,70.61
2018-04-04T10:05:55.393Z,70.12
2018-04-04T10:08:24.026Z,70.67
2018-04-04T10:10:52.419Z,71.95
2018-04-04T10:13:20.810Z,71.79
2018-04-04T10:15:49.235Z,70.95
2018-04-04T10:18:17.629Z,70.60
2018-04-04T10:20:47.904Z,71.36
2018-04-04T10:23:16.888Z,71.88
2018-04-04T10:25:45.404Z,71.67
2018-04-04T10:28:14.621Z,71.49
2018-04-04T10:30:43.806Z,71.53
2018-04-04T10:33:12.297Z,71.36
2018-04-04T10:35:40.726Z,71.67
2018-04-04T10:38:09.123Z,70.74
2018-04-04T10:40:37.533Z,71.29
2018-04-04T10:43:05.967Z,70.72
2018-04-04T10:45:34.447Z,71.24
2018-04-04T10:48:02.840Z,69.96
2018-04-04T10:50:31.277Z,70.63
2018-04-04T10:52:59.689Z,69.69
2018-04-04T10:55:28.450Z,68.46
2018-04-04T10:57:56.857Z,68.84
2018-04-04T11:00:25.253Z,68.47
2018-04-04T11:02:53.825Z,68.46
2018-04-04T11:05:22.283Z,68.84
2018-04-04T11:07:51.420Z,69.16
2018-04-04T11:10:19.796Z,69.33
2018-04-04T11:12:48.207Z,68.95
2018-04-04T11:15:16.585Z,69.82
2018-04-04T11:17:44.958Z,72.11
2018-04-04T11:20:13.351Z,72.63
2018-04-04T11:22:42.503Z,73.56
2018-04-04T11:25:10.966Z,73.86
2018-04-04T11:27:40.111Z,74.44
2018-04-04T11:30:08.616Z,77.08
2018-04-04T11:32:37.792Z,72.64
2018-04-04T11:35:06.460Z,72.12
2018-04-04T11:37:35.298Z,74.48
2018-04-04T11:40:04.127Z,72.95
2018-04-04T11:42:33.984Z,73.98
2018-04-04T11:45:03.465Z,74.09
2018-04-04T11:47:32.590Z,73.72
2018-04-04T11:50:02.487Z,75.25
2018-04-04T11:52:31.312Z,74.20
2018-04-04T11:55:01.183Z,74.37
2018-04-04T11:57:30.282Z,74.03
2018-04-04T11:59:59.479Z,74.65
2018-04-04T12:02:30.102Z,74.92
2018-04-04T12:04:58.861Z,75.67
2018-04-04T12:07:27.793Z,74.18
2018-04-04T12:09:56.891Z,74.55
2018-04-04T12:12:25.981Z,74.70
2018-04-04T12:14:55.086Z,74.84
2018-04-04T12:17:34.827Z,74.75
2018-04-04T12:20:03.866Z,74.18
2018-04-04T12:22:43.470Z,73.58
2018-04-04T12:25:12.497Z,73.06
2018-04-04T12:27:41.598Z,73.95
2018-04-04T12:30:11.438Z,73.66
2018-04-04T12:32:41.443Z,73.13
2018-04-04T12:35:11.115Z,72.65
2018-04-04T12:37:41.019Z,73.76
2018-04-04T12:40:11.137Z,72.90
2018-04-04T12:42:40.144Z,72.89
2018-04-04T12:45:09.234Z,73.39
2018-04-04T12:47:38.342Z,73.67
2018-04-04T12:50:07.952Z,73.42
2018-04-04T12:52:36.955Z,73.09
2018-04-04T12:55:06.649Z,72.82
2018-04-04T12:57:35.832Z,72.82
2018-04-04T13:00:05.002Z,73.52
2018-04-04T13:02:34.088Z,71.68
2018-04-04T13:05:03.209Z,72.70
2018-04-04T13:07:32.094Z,72.49
2018-04-04T13:10:01.197Z,73.93
2018-04-04T13:12:30.837Z,74.10
2018-04-04T13:14:59.261Z,72.07
2018-04-04T13:17:27.681Z,72.73
2018-04-04T13:19:56.240Z,73.89
2018-04-04T13:22:25.530Z,72.79
2018-04-04T13:24:53.953Z,72.63
2018-04-04T13:27:22.527Z,72.64
2018-04-04T13:29:50.919Z,71.99
2018-04-04T13:32:21.607Z,71.72
2018-04-04T13:34:50.163Z,71.27
2018-04-04T13:37:18.571Z,71.48
2018-04-04T13:39:46.948Z,71.41
2018-04-04T13:42:15.377Z,70.31
2018-04-04T13:44:44.190Z,69.30
2018-04-04T13:47:12.651Z,69.09
2018-04-04T13:49:41.116Z,70.43
2018-04-04T13:52:10.332Z,69.92
2018-04-04T13:54:38.791Z,71.00
2018-04-04T13:57:07.965Z,70.69
2018-04-04T13:59:36.482Z,70.92
2018-04-04T14:02:05.634Z,71.44
2018-04-04T14:04:34.183Z,71.62
2018-04-04T14:07:02.579Z,70.92
2018-04-04T14:09:31.016Z,71.21
2018-04-04T14:11:59.420Z,72.12
2018-04-04T14:14:27.832Z,70.49
2018-04-04T14:16:56.189Z,68.89
2018-04-04T14:19:24.591Z,69.05
2018-04-04T14:21:52.990Z,68.94
2018-04-04T14:24:22.174Z,69.09
2018-04-04T14:26:50.589Z,68.55
2018-04-04T14:29:18.987Z,67.88
2018-04-04T14:31:48.170Z,67.59
2018-04-04T14:34:16.608Z,67.80
2018-04-04T14:36:44.998Z,67.23
2018-04-04T14:39:13.407Z,65.70
2018-04-04T14:41:41.824Z,66.23
2018-04-04T14:44:10.239Z,65.43
2018-04-04T14:46:38.700Z,65.96
2018-04-04T14:49:07.183Z,64.62
2018-04-04T14:51:36.594Z,65.45
2018-04-04T14:54:07.013Z,64.71
2018-04-04T14:56:35.440Z,63.88
2018-04-04T14:59:03.830Z,62.09
2018-04-04T15:01:32.993Z,60.07
2018-04-04T15:04:01.404Z,60.79
2018-04-04T15:06:29.792Z,60.78
2018-04-04T15:08:58.206Z,59.54
2018-04-04T15:11:26.605Z,58.42
2018-04-04T15:13:54.984Z,58.74
2018-04-04T15:16:23.379Z,59.63
2018-04-04T15:18:51.802Z,59.17
2018-04-04T15:21:20.203Z,59.46
2018-04-04T15:23:49.506Z,60.38
2018-04-04T15:26:18.854Z,60.50
2018-04-04T15:28:47.300Z,61.29
2018-04-04T15:31:16.447Z,60.77
2018-04-04T15:33:44.838Z,59.24
2018-04-04T15:36:13.243Z,59.44
2018-04-04T15:38:41.633Z,58.19
2018-04-04T15:41:10.810Z,58.62
2018-04-04T15:43:39.292Z,59.28
2018-04-04T15:46:07.692Z,59.52
2018-04-04T15:48:36.841Z,58.92
2018-04-04T15:51:05.290Z,59.75
2018-04-04T15:53:33.717Z,56.85
2018-04-04T15:56:02.129Z,58.04
2018-04-04T15:58:30.498Z,58.08
2018-04-04T16:00:58.946Z,57.30
2018-04-04T16:03:27.343Z,57.15
2018-04-04T16:05:55.776Z,55.90
2018-04-04T16:08:24.930Z,56.91
2018-04-04T16:10:53.337Z,56.83
2018-04-04T16:13:21.955Z,56.14
2018-04-04T16:15:50.570Z,56.42
2018-04-04T16:18:18.986Z,58.41
2018-04-04T16:20:47.363Z,58.06
2018-04-04T16:23:15.837Z,58.88
2018-04-04T16:25:45.027Z,59.69
2018-04-04T16:28:13.409Z,60.19
2018-04-04T16:30:41.831Z,60.55
2018-04-04T16:33:10.227Z,61.63
2018-04-04T16:35:39.407Z,61.47
2018-04-04T16:38:08.732Z,60.99
2018-04-04T16:40:37.184Z,59.96
2018-04-04T16:43:06.319Z,59.37
2018-04-04T16:45:34.812Z,59.23
2018-04-04T16:48:03.225Z,59.16
2018-04-04T16:50:43.970Z,60.08
2018-04-04T16:53:12.457Z,60.63
2018-04-04T16:55:41.146Z,61.00
2018-04-04T16:58:09.678Z,61.12
2018-04-04T17:00:39.872Z,59.75
2018-04-04T17:03:08.462Z,60.55
2018-04-04T17:05:37.598Z,61.07
2018-04-04T17:08:06.854Z,61.49
2018-04-04T17:10:36.345Z,62.18
2018-04-04T17:13:04.749Z,63.34
2018-04-04T17:15:33.900Z,63.32
2018-04-04T17:18:03.211Z,63.06
2018-04-04T17:20:36.177Z,62.93
2018-04-04T17:23:04.598Z,62.50
2018-04-04T17:25:34.264Z,63.41
2018-04-04T17:28:02.827Z,62.99
2018-04-04T17:30:32.409Z,63.90
2018-04-04T17:33:00.975Z,63.02
2018-04-04T17:35:33.806Z,63.19
2018-04-04T17:38:04.152Z,63.32
2018-04-04T17:40:43.241Z,63.00
2018-04-04T17:43:12.106Z,63.86
2018-04-04T17:45:41.667Z,63.76
2018-04-04T17:48:10.745Z,64.62
2018-04-04T17:50:39.143Z,65.32
2018-04-04T17:53:07.626Z,64.84
2018-04-04T17:55:46.216Z,64.95
2018-04-04T17:58:14.671Z,64.94
2018-04-04T18:00:43.409Z,65.60
2018-04-04T18:03:12.042Z,66.01
2018-04-04T18:05:40.605Z,65.47
2018-04-04T18:08:08.991Z,65.52
2018-04-04T18:10:37.767Z,66.18
2018-04-04T18:13:06.201Z,66.00
2018-04-04T18:15:34.687Z,66.26
2018-04-04T18:18:03.946Z,65.99
2018-04-04T18:20:32.310Z,66.12
2018-04-04T18:23:00.718Z,66.09
2018-04-04T18:25:29.126Z,65.78
2018-04-04T18:27:57.545Z,66.29
2018-04-04T18:30:25.980Z,66.28
2018-04-04T18:32:55.160Z,66.35
2018-04-04T18:35:23.633Z,66.40
2018-04-04T18:37:52.034Z,67.43
2018-04-04T18:40:21.224Z,67.08
2018-04-04T18:42:49.647Z,66.98
2018-04-04T18:45:18.058Z,66.74
2018-04-04T18:47:46.442Z,66.58
2018-04-04T18:50:14.867Z,66.47
2018-04-04T18:52:44.216Z,66.28
2018-04-04T18:55:12.639Z,66.51
2018-04-04T18:57:41.031Z,66.61
2018-04-04T19:00:10.244Z,66.62
2018-04-04T19:02:38.643Z,66.71
2018-04-04T19:05:07.111Z,67.21
2018-04-04T19:07:35.556Z,67.10
2018-04-04T19:10:04.794Z,67.12
2018-04-04T19:12:33.205Z,66.75
2018-04-04T19:15:01.611Z,67.49
2018-04-04T19:17:30.003Z,67.74
2018-04-04T19:19:59.184Z,67.64
2018-04-04T19:22:27.693Z,67.36
2018-04-04T19:24:56.164Z,66.91
2018-04-04T19:27:25.318Z,66.71
2018-04-04T19:29:55.281Z,66.49
2018-04-04T19:32:24.616Z,66.82
2018-04-04T19:34:54.174Z,66.12
2018-04-04T19:37:23.043Z,66.88
2018-04-04T19:39:51.868Z,67.07
2018-04-04T19:42:21.531Z,66.89
2018-04-04T19:44:53.758Z,67.37
2018-04-04T19:47:22.220Z,67.29
2018-04-04T19:49:50.794Z,66.63
2018-04-04T19:52:19.774Z,67.17
2018-04-04T19:54:48.297Z,66.61
2018-04-04T19:57:17.534Z,66.64
2018-04-04T19:59:46.068Z,66.96
2018-04-04T20:02:14.825Z,66.50
2018-04-04T20:04:43.369Z,66.81
2018-04-04T20:07:11.958Z,66.86
2018-04-04T20:09:40.733Z,66.85
2018-04-04T20:12:09.994Z,66.59
2018-04-04T20:14:38.488Z,67.17
2018-04-04T20:17:06.939Z,66.57
2018-04-04T20:19:35.395Z,66.63
2018-04-04T20:22:03.855Z,66.63
2018-04-04T20:24:32.902Z,66.82
2018-04-04T20:27:01.344Z,66.48
2018-04-04T20:29:30.650Z,65.87
2018-04-04T20:31:59.081Z,65.93
2018-04-04T20:34:27.683Z,65.88
2018-04-04T20:36:57.096Z,66.59
2018-04-04T20:39:25.596Z,66.31
2018-04-04T20:41:54.887Z,66.00
2018-04-04T20:44:23.354Z,66.25
2018-04-04T20:46:52.042Z,66.00
2018-04-04T20:49:23.608Z,66.31
2018-04-04T20:51:52.279Z,66.29
2018-04-04T20:54:21.473Z,66.52
2018-04-04T20:56:50.178Z,66.90
2018-04-04T20:59:19.409Z,67.08
2018-04-04T21:01:47.962Z,67.57
2018-04-04T21:04:16.402Z,66.54
2018-04-04T21:06:44.819Z,66.77
2018-04-04T21:09:14.407Z,67.47
2018-04-04T21:11:43.898Z,67.05
2018-04-04T21:14:16.447Z,66.44
2018-04-04T21:16:48.373Z,66.23
2018-04-04T21:19:17.760Z,66.65
2018-04-04T21:21:56.196Z,66.97
2018-04-04T21:24:25.078Z,66.73
2018-04-04T21:26:53.550Z,66.89
2018-04-04T21:29:22.000Z,66.88
2018-04-04T21:31:50.506Z,66.76
2018-04-04T21:34:18.979Z,66.56
2018-04-04T21:36:48.894Z,67.17
2018-04-04T21:39:17.341Z,67.24
2018-04-04T21:41:46.685Z,69.18
2018-04-04T21:44:15.121Z,70.82
2018-04-04T21:46:44.306Z,72.08
2018-04-04T21:49:13.499Z,72.28
2018-04-04T21:51:42.709Z,70.94
2018-04-04T21:54:11.167Z,73.90
2018-04-04T21:56:39.603Z,74.90
2018-04-04T21:59:08.977Z,75.44
2018-04-04T22:01:38.169Z,76.13
2018-04-04T22:04:06.623Z,76.96
2018-04-04T22:06:35.759Z,76.01
2018-04-04T22:09:04.230Z,77.44
2018-04-04T22:11:32.702Z,77.20
2018-04-04T22:14:02.077Z,77.16
2018-04-04T22:16:30.529Z,77.47
2018-04-04T22:18:58.942Z,74.77
2018-04-04T22:21:27.352Z,73.63
2018-04-04T22:23:56.559Z,71.94
2018-04-04T22:26:24.995Z,73.85
2018-04-04T22:28:53.460Z,72.59
2018-04-04T22:31:22.644Z,74.27
2018-04-04T22:33:52.783Z,73.24
2018-04-04T22:36:21.326Z,74.31
2018-04-04T22:38:49.802Z,72.39
2018-04-04T22:41:19.101Z,72.20
2018-04-04T22:43:47.539Z,72.51
2018-04-04T22:46:15.969Z,72.02
2018-04-04T22:48:44.374Z,70.87
2018-04-04T22:51:12.919Z,71.26
2018-04-04T22:53:41.342Z,70.42
2018-04-04T22:56:09.770Z,70.10
2018-04-04T22:58:38.188Z,69.55
2018-04-04T23:01:07.376Z,69.13
2018-04-04T23:03:35.781Z,69.83
2018-04-04T23:06:05.004Z,70.70
2018-04-04T23:08:33.443Z,69.30
2018-04-04T23:11:01.989Z,70.02
2018-04-04T23:13:30.395Z,68.97
2018-04-04T23:15:58.801Z,69.04
2018-04-04T23:18:28.049Z,68.73
2018-04-04T23:20:56.446Z,68.28
2018-04-04T23:23:24.852Z,67.85
2018-04-04T23:25:54.109Z,68.28
2018-04-04T23:28:22.567Z,68.03
2018-04-04T23:30:50.976Z,68.40
2018-04-04T23:33:19.970Z,69.44
2018-04-04T23:35:48.407Z,68.08
2018-04-04T23:38:17.800Z,68.08
2018-04-04T23:40:46.228Z,69.18
2018-04-04T23:43:14.677Z,69.62
2018-04-04T23:45:43.884Z,68.73
2018-04-04T23:48:13.075Z,68.85
2018-04-04T23:50:42.272Z,68.66
2018-04-04T23:53:11.445Z,68.95
2018-04-04T23:55:39.866Z,69.27
2018-04-04T23:58:08.301Z,68.02
